Time;durP1;ratioP1;P1;durP2;ratioP2;P2;SDS_P1;SDS_P2;PMS_P1;PMS_P2;Temp;Humidity;BMP_temperature;BMP_pressure;BME280_temperature;BME280_humidity;BME280_pressure;Samples;Min_cycle;Max_cycle;Signal;HPM_P1;HPM_P2
2021/10/01 00:02:17;;;;;;;1.47;0.87;;;20.00;99.90;;;20.28;52.19;101749.84;5028100;27;100439;-48
2021/10/01 00:04:43;;;;;;;1.07;0.87;;;20.10;99.90;;;20.33;51.91;101737.88;5044918;27;97466;-49
2021/10/01 00:07:11;;;;;;;0.90;0.80;;;20.20;99.90;;;20.39;51.99;101742.84;5024035;27;100112;-42
2021/10/01 00:09:40;;;;;;;2.60;0.93;;;20.30;99.90;;;20.45;51.49;101741.69;5029601;27;98580;-47
2021/10/01 00:12:07;;;;;;;1.07;0.70;;;20.40;98.50;;;20.49;51.66;101733.34;5045333;27;98417;-46
2021/10/01 00:14:35;;;;;;;2.17;1.10;;;20.40;99.80;;;20.53;51.48;101733.16;5043150;27;98518;-43
2021/10/01 00:17:02;;;;;;;1.67;0.93;;;20.50;99.30;;;20.55;51.51;101729.47;5023094;27;99125;-47
2021/10/01 00:19:31;;;;;;;1.13;0.90;;;20.50;99.80;;;20.56;51.35;101728.50;5027960;27;99813;-46
2021/10/01 00:21:56;;;;;;;2.07;1.17;;;20.50;99.80;;;20.58;51.30;101729.25;5042271;27;98124;-43
2021/10/01 00:24:22;;;;;;;1.30;1.00;;;20.50;99.40;;;20.59;51.21;101727.44;5044529;27;98900;-47
2021/10/01 00:26:48;;;;;;;1.63;1.00;;;20.60;99.00;;;20.60;51.39;101723.81;5041185;27;100450;-42
2021/10/01 00:29:14;;;;;;;2.20;1.00;;;20.50;99.10;;;20.59;51.14;101716.72;5044535;27;99657;-45
2021/10/01 00:31:41;;;;;;;1.77;1.10;;;20.60;98.90;;;20.61;51.25;101714.81;5043059;27;99719;-48
2021/10/01 00:34:06;;;;;;;2.57;1.20;;;20.60;99.50;;;20.59;50.84;101712.22;5046058;27;98195;-46
2021/10/01 00:36:34;;;;;;;1.10;0.90;;;20.60;97.90;;;20.62;50.95;101704.00;5044705;27;97471;-49
2021/10/01 00:39:00;;;;;;;1.57;1.20;;;20.50;98.60;;;20.63;50.72;101702.16;5021955;27;98128;-48
2021/10/01 00:41:27;;;;;;;1.57;1.00;;;20.60;98.50;;;20.58;51.17;101704.28;5043068;27;98497;-44
2021/10/01 00:43:54;;;;;;;2.47;1.20;;;20.40;99.40;;;20.58;51.29;101701.59;5023196;27;97269;-48
2021/10/01 00:46:20;;;;;;;1.10;0.90;;;20.50;98.90;;;20.60;51.24;101703.22;5029532;27;98656;-45
2021/10/01 00:48:46;;;;;;;2.23;1.03;;;20.50;99.70;;;20.60;51.24;101691.63;5025133;27;97575;-49
2021/10/01 00:51:12;;;;;;;2.73;1.00;;;20.50;99.60;;;20.59;48.91;101695.28;5027428;27;99002;-48
2021/10/01 00:53:38;;;;;;;2.53;1.10;;;20.50;96.60;;;20.57;51.12;101691.84;5045883;27;100583;-46
2021/10/01 00:56:04;;;;;;;2.03;1.20;;;20.40;99.00;;;20.55;51.33;101683.03;5041649;27;101735;-44
2021/10/01 00:58:30;;;;;;;3.83;1.60;;;20.40;99.80;;;20.52;50.03;101683.19;5065087;27;97240;-43
2021/10/01 01:01:09;;;;;;;1.73;1.10;;;20.40;96.50;;;20.53;51.59;101684.91;5047835;27;97608;-49
2021/10/01 01:04:00;;;;;;;1.30;1.00;;;20.30;99.40;;;20.50;51.67;101686.84;5048492;27;98697;-46
2021/10/01 01:06:56;;;;;;;1.80;1.13;;;20.30;99.90;;;20.42;50.93;101681.09;5030605;27;104692;-45
2021/10/01 01:09:53;;;;;;;2.20;1.00;;;20.20;98.10;;;20.41;51.81;101682.06;5047332;27;97700;-45
2021/10/01 01:12:43;;;;;;;1.77;1.10;;;20.20;99.40;;;20.34;51.83;101672.59;5064080;27;98601;-47
2021/10/01 01:15:15;;;;;;;1.20;0.90;;;20.10;99.30;;;20.29;52.31;101671.19;5064730;27;102821;-45
2021/10/01 01:17:52;;;;;;;1.33;1.00;;;20.00;99.90;;;20.25;52.22;101672.28;5048348;27;97089;-47
2021/10/01 01:20:45;;;;;;;1.53;0.93;;;19.90;99.90;;;20.29;52.32;101665.81;5068725;27;97348;-47
2021/10/01 01:23:16;;;;;;;2.37;1.10;;;20.00;99.90;;;20.31;51.98;101664.75;5046877;27;98711;-42
2021/10/01 01:25:54;;;;;;;1.83;1.13;;;20.10;98.30;;;20.31;51.93;101664.75;5048366;27;98530;-45
2021/10/01 01:29:03;;;;;;;0.90;0.80;;;20.10;98.20;;;20.25;52.26;101659.75;5051911;27;96903;-48
2021/10/01 01:31:54;;;;;;;1.40;0.90;;;20.00;99.90;;;20.20;52.55;101656.50;5047417;27;97510;-42
2021/10/01 01:34:50;;;;;;;1.83;1.10;;;19.90;99.90;;;20.15;52.61;101659.47;5061727;27;99924;-44
2021/10/01 01:37:41;;;;;;;0.90;0.80;;;19.80;99.90;;;20.07;52.50;101653.69;5066175;27;101236;-45
2021/10/01 01:40:09;;;;;;;2.97;1.23;;;19.70;99.90;;;20.06;52.52;101643.09;5045338;27;104404;-46
2021/10/01 01:42:38;;;;;;;2.47;1.20;;;19.70;99.30;;;20.10;52.30;101644.63;5033364;27;97041;-47
2021/10/01 01:45:05;;;;;;;2.73;1.20;;;19.80;99.90;;;20.04;52.52;101639.63;5033155;27;102156;-43
2021/10/01 01:47:32;;;;;;;3.90;1.23;;;19.70;99.10;;;20.08;51.57;101635.81;5048064;27;97695;-42
2021/10/01 01:50:00;;;;;;;1.73;1.10;;;19.80;99.30;;;20.14;52.46;101630.97;5046764;27;99016;-45
2021/10/01 01:52:27;;;;;;;3.10;1.40;;;19.90;99.90;;;20.08;52.24;101641.16;5045859;27;97526;-44
2021/10/01 01:54:54;;;;;;;1.53;1.00;;;19.80;99.30;;;20.13;52.56;101636.41;5068182;27;97126;-43
2021/10/01 01:57:23;;;;;;;1.60;0.80;;;19.90;99.90;;;20.18;52.27;101632.50;5031226;27;100482;-45
2021/10/01 01:59:50;;;;;;;1.63;1.00;;;20.00;99.90;;;20.25;52.13;101630.28;5030673;27;100055;-46
2021/10/01 02:02:18;;;;;;;1.30;0.90;;;20.10;99.90;;;20.28;52.13;101622.09;5046832;27;98734;-45
2021/10/01 02:04:45;;;;;;;0.87;0.70;;;20.10;99.90;;;20.27;50.79;101631.09;5047015;27;99022;-45
2021/10/01 02:07:13;;;;;;;2.60;1.10;;;20.10;97.50;;;20.31;51.90;101626.41;5069859;27;101105;-45
2021/10/01 02:09:39;;;;;;;1.53;0.90;;;20.10;99.90;;;20.29;51.55;101628.31;5062919;27;97570;-46
2021/10/01 02:12:06;;;;;;;2.03;0.60;;;20.10;98.40;;;20.24;49.16;101625.88;5051599;27;97367;-44
2021/10/01 02:14:39;;;;;;;1.60;0.93;;;20.10;95.80;;;20.24;51.83;101620.53;5061189;27;97648;-41
2021/10/01 02:17:06;;;;;;;1.13;0.83;;;20.00;99.90;;;20.20;52.08;101609.16;5047270;27;102631;-43
2021/10/01 02:19:34;;;;;;;1.27;0.67;;;19.90;99.90;;;20.21;52.06;101610.00;5050217;27;98541;-44
2021/10/01 02:22:05;;;;;;;1.30;0.90;;;20.00;99.90;;;20.25;51.78;101616.91;5046543;27;97660;-46
2021/10/01 02:24:32;;;;;;;1.00;0.70;;;20.00;99.90;;;20.31;51.74;101610.31;5046765;27;97524;-43
2021/10/01 02:27:09;;;;;;;1.63;0.90;;;20.10;99.90;;;20.33;51.63;101603.91;5048959;27;101140;-42
2021/10/01 02:29:58;;;;;;;1.77;1.00;;;20.20;99.90;;;20.34;50.99;101605.63;5048717;27;97313;-46
2021/10/01 02:32:44;;;;;;;1.17;0.80;;;20.20;97.00;;;20.35;51.75;101596.63;5046117;27;98196;-45
2021/10/01 02:35:10;;;;;;;2.00;1.00;;;20.20;99.90;;;20.38;51.73;101600.94;5045810;27;97221;-44
2021/10/01 02:37:37;;;;;;;1.73;0.90;;;20.20;99.90;;;20.40;51.68;101589.19;5048779;27;98921;-41
2021/10/01 02:40:07;;;;;;;0.90;0.70;;;20.30;99.90;;;20.43;51.62;101583.66;5065732;27;98707;-44
2021/10/01 02:42:33;;;;;;;1.70;0.80;;;20.30;99.40;;;20.42;51.59;101584.63;5067344;27;97410;-41
2021/10/01 02:44:59;;;;;;;1.10;0.80;;;20.30;99.90;;;20.43;51.68;101581.00;5048269;27;97158;-47
2021/10/01 02:47:31;;;;;;;2.67;1.00;;;20.30;99.30;;;20.44;51.55;101580.03;5046151;27;99476;-44
2021/10/01 02:50:06;;;;;;;1.77;1.00;;;20.30;99.90;;;20.39;46.23;101578.53;5063431;27;99997;-44
2021/10/01 02:52:48;;;;;;;2.13;0.73;;;20.30;95.80;;;20.45;51.65;101579.06;5044326;27;99242;-44
2021/10/01 02:55:52;;;;;;;1.03;0.63;;;20.30;99.80;;;20.53;51.40;101572.34;5064462;27;97986;-46
2021/10/01 02:58:26;;;;;;;2.10;1.17;;;20.40;99.90;;;20.55;51.36;101573.16;5042365;27;104272;-49
2021/10/01 03:00:54;;;;;;;0.97;0.87;;;20.50;99.80;;;20.59;51.41;101580.03;5064785;27;98879;-47
2021/10/01 03:03:38;;;;;;;1.23;0.83;;;20.50;99.60;;;20.63;50.95;101576.19;5047885;27;97041;-48
2021/10/01 03:06:05;;;;;;;1.67;0.80;;;20.50;99.60;;;20.63;50.92;101574.38;5049099;27;97626;-44
2021/10/01 03:08:33;;;;;;;2.57;0.80;;;20.60;99.40;;;20.63;50.72;101573.50;5061261;27;97272;-44
2021/10/01 03:11:01;;;;;;;1.20;0.87;;;20.60;98.90;;;20.59;51.20;101577.34;5048256;27;98790;-49
2021/10/01 03:13:27;;;;;;;1.87;0.80;;;20.50;99.30;;;20.50;50.82;101566.22;5048015;27;97628;-48
2021/10/01 03:15:57;;;;;;;1.47;0.90;;;20.40;97.40;;;20.48;51.31;101570.81;5061469;27;98461;-46
2021/10/01 03:18:24;;;;;;;1.83;0.87;;;20.30;99.30;;;20.47;50.55;101570.94;5046241;27;99578;-47
2021/10/01 03:20:50;;;;;;;1.93;1.10;;;20.30;97.80;;;20.48;51.33;101565.47;5047391;27;99950;-47
2021/10/01 03:23:20;;;;;;;2.87;1.17;;;20.30;99.80;;;20.53;51.33;101561.63;5056218;27;98764;-48
2021/10/01 03:25:47;;;;;;;1.00;0.70;;;20.40;99.50;;;20.50;51.13;101563.56;5049734;27;97196;-47
2021/10/01 03:28:13;;;;;;;1.87;0.90;;;20.40;99.70;;;20.50;51.41;101555.50;5074626;27;96869;-45
2021/10/01 03:30:44;;;;;;;1.20;0.80;;;20.40;99.50;;;20.53;51.12;101556.28;5045173;27;97119;-49
2021/10/01 03:33:11;;;;;;;1.47;0.90;;;20.40;99.70;;;20.55;51.07;101554.38;5063155;27;97351;-46
2021/10/01 03:35:40;;;;;;;2.10;0.97;;;20.50;99.30;;;20.55;51.08;101554.38;5051952;27;97588;-45
2021/10/01 03:38:09;;;;;;;1.47;0.93;;;20.50;99.40;;;20.52;51.26;101555.41;5063647;27;102800;-45
2021/10/01 03:40:35;;;;;;;1.67;0.80;;;20.40;99.60;;;20.52;51.25;101559.91;5051212;27;97484;-44
2021/10/01 03:43:01;;;;;;;1.60;0.80;;;20.40;99.70;;;20.53;51.18;101551.78;5032695;27;97521;-44
2021/10/01 03:45:27;;;;;;;2.17;1.00;;;20.40;99.20;;;20.55;51.04;101549.03;5053454;27;97006;-45
2021/10/01 03:47:53;;;;;;;2.47;1.00;;;20.50;99.50;;;20.57;51.11;101547.09;5042202;27;98545;-48
2021/10/01 03:50:19;;;;;;;1.17;0.70;;;20.50;99.50;;;20.53;50.23;101540.19;5067943;27;96943;-49
2021/10/01 03:52:45;;;;;;;1.30;0.80;;;20.50;97.40;;;20.55;50.94;101532.94;5045602;27;97806;-47
2021/10/01 03:55:18;;;;;;;2.33;1.10;;;20.50;99.40;;;20.55;50.78;101538.31;5068513;27;96851;-47
2021/10/01 03:57:44;;;;;;;3.27;1.03;;;20.50;99.00;;;20.52;50.19;101533.97;5045511;27;98598;-45
2021/10/01 04:00:11;;;;;;;2.13;1.00;;;20.40;97.20;;;20.47;50.38;101541.44;5064779;27;97221;-44
2021/10/01 04:02:37;;;;;;;2.03;1.00;;;20.30;97.70;;;20.44;51.24;101547.00;5069234;27;98789;-48
2021/10/01 04:05:03;;;;;;;1.73;0.90;;;20.30;99.30;;;20.40;50.51;101538.28;5044666;27;97694;-47
2021/10/01 04:07:28;;;;;;;1.87;0.97;;;20.20;98.00;;;20.38;51.09;101534.81;5072370;27;99295;-45
2021/10/01 04:09:54;;;;;;;2.43;0.80;;;20.20;98.70;;;20.37;51.49;101529.53;5043673;27;120541;-45
2021/10/01 04:12:20;;;;;;;1.37;0.80;;;20.20;99.90;;;20.37;51.40;101526.88;5052534;27;98035;-45
2021/10/01 04:14:46;;;;;;;1.43;0.90;;;20.20;98.50;;;20.35;51.34;101526.09;5043891;27;97207;-47
2021/10/01 04:17:12;;;;;;;1.50;0.93;;;20.20;99.90;;;20.31;51.46;101530.81;5068679;27;101066;-45
2021/10/01 04:19:38;;;;;;;2.70;1.10;;;20.20;98.70;;;20.31;51.50;101530.81;5052881;27;99663;-47
2021/10/01 04:22:04;;;;;;;1.70;1.07;;;20.10;98.70;;;20.29;51.56;101526.50;5064600;27;97220;-48
2021/10/01 04:24:30;;;;;;;2.27;0.90;;;20.10;99.20;;;20.30;51.45;101523.72;5053552;27;98319;-44
2021/10/01 04:26:56;;;;;;;1.23;0.83;;;20.10;99.40;;;20.33;51.46;101512.81;5042730;27;104610;-47
2021/10/01 04:29:22;;;;;;;1.50;0.90;;;20.20;99.90;;;20.36;51.18;101517.97;5053190;27;97700;-43
2021/10/01 04:31:47;;;;;;;3.73;1.10;;;20.20;99.50;;;20.30;48.18;101518.38;5040098;27;101064;-44
2021/10/01 04:34:22;;;;;;;1.73;0.80;;;20.20;94.70;;;20.25;46.28;101520.44;5068483;27;96990;-45
2021/10/01 04:36:48;;;;;;;5.97;1.40;;;20.10;95.00;;;20.24;51.51;101518.72;5046784;27;97702;-48
2021/10/01 04:39:14;;;;;;;1.47;0.90;;;20.00;99.20;;;20.18;51.63;101516.44;5070344;27;109633;-48
2021/10/01 04:41:41;;;;;;;3.27;1.27;;;19.90;99.80;;;20.13;44.70;101513.22;5064980;27;97441;-49
2021/10/01 04:44:08;;;;;;;2.00;0.70;;;19.90;96.70;;;20.20;51.48;101511.84;5063933;27;97801;-47
2021/10/01 04:46:34;;;;;;;1.70;0.97;;;20.00;99.50;;;20.18;51.58;101508.41;5067340;27;97875;-44
2021/10/01 04:49:00;;;;;;;1.57;1.07;;;20.00;98.50;;;20.15;51.24;101504.13;5062021;27;109335;-44
2021/10/01 04:51:26;;;;;;;1.30;0.80;;;19.90;98.60;;;20.18;51.37;101497.69;5069230;27;108138;-46
2021/10/01 04:53:52;;;;;;;4.33;1.10;;;20.00;98.70;;;20.16;50.28;101500.47;5061240;27;98878;-46
2021/10/01 04:56:18;;;;;;;1.73;0.80;;;20.00;96.80;;;20.14;51.67;101493.50;5073277;27;98426;-45
2021/10/01 04:58:44;;;;;;;2.43;0.77;;;19.90;99.80;;;20.15;51.41;101497.91;5046118;27;97625;-48
2021/10/01 05:01:10;;;;;;;1.53;0.90;;;19.90;98.70;;;20.19;51.63;101491.38;5051292;27;98687;-46
2021/10/01 05:03:36;;;;;;;1.10;0.60;;;20.00;99.90;;;20.23;51.43;101484.00;5064381;27;98828;-47
2021/10/01 05:06:02;;;;;;;1.73;0.80;;;20.10;99.50;;;20.20;51.63;101491.28;5062925;27;97254;-47
2021/10/01 05:08:28;;;;;;;3.17;1.10;;;20.00;99.60;;;20.21;50.90;101481.44;5050510;27;99727;-46
2021/10/01 05:10:54;;;;;;;0.90;0.60;;;20.10;98.70;;;20.21;51.46;101482.28;5063721;27;96906;-45
2021/10/01 05:13:20;;;;;;;1.23;0.70;;;20.00;99.70;;;20.16;51.38;101487.09;5052334;27;101439;-47
2021/10/01 05:15:46;;;;;;;1.57;1.10;;;19.90;98.70;;;20.20;51.49;101474.34;5041550;27;105749;-48
2021/10/01 05:18:14;;;;;;;1.80;0.70;;;20.00;99.00;;;20.17;51.44;101490.63;5050738;27;97275;-51
2021/10/01 05:20:40;;;;;;;1.17;0.70;;;20.00;99.40;;;20.08;51.60;101486.69;5047606;27;97612;-48
2021/10/01 05:23:06;;;;;;;1.17;0.67;;;19.80;99.60;;;20.05;51.72;101486.88;5049860;27;97081;-46
2021/10/01 05:25:32;;;;;;;2.10;0.80;;;19.70;99.90;;;20.00;51.49;101482.78;5066497;27;98896;-46
2021/10/01 05:27:57;;;;;;;1.73;0.80;;;19.70;98.70;;;19.97;51.93;101477.63;5050493;27;99637;-46
2021/10/01 05:30:23;;;;;;;2.33;0.80;;;19.60;99.40;;;19.96;51.37;101486.59;5054132;27;98491;-49
2021/10/01 05:32:49;;;;;;;1.83;0.73;;;19.60;98.00;;;19.92;52.21;101485.94;5043327;27;99534;-49
2021/10/01 05:35:16;;;;;;;1.67;0.80;;;19.60;99.90;;;19.86;50.87;101481.81;5052086;27;100152;-44
2021/10/01 05:37:42;;;;;;;2.00;0.90;;;19.60;96.30;;;19.90;51.66;101480.66;5058152;27;99064;-46
2021/10/01 05:40:09;;;;;;;2.40;1.17;;;19.60;97.80;;;19.84;51.78;101485.56;5069681;27;98566;-47
2021/10/01 05:42:35;;;;;;;4.20;1.27;;;19.50;98.70;;;19.80;44.94;101492.03;5050722;27;97054;-46
2021/10/01 05:45:02;;;;;;;1.23;0.80;;;19.50;95.90;;;19.82;52.37;101482.97;5044912;27;99935;-47
2021/10/01 05:47:29;;;;;;;2.33;0.73;;;19.50;99.90;;;19.85;52.21;101490.81;5047420;27;97989;-46
2021/10/01 05:50:01;;;;;;;1.53;0.87;;;19.60;99.30;;;19.92;52.06;101491.28;5035583;27;98001;-47
2021/10/01 05:54:59;;;;;;;2.33;0.73;;;19.80;99.90;;;20.02;51.93;101483.56;5060500;27;99496;-46
2021/10/01 05:57:26;;;;;;;2.57;1.10;;;19.80;99.30;;;20.05;50.16;101486.03;5049952;27;100002;-46
2021/10/01 05:59:53;;;;;;;2.73;0.87;;;19.90;96.70;;;20.11;50.38;101485.66;5059504;27;100095;-49
2021/10/01 06:02:21;;;;;;;2.27;0.90;;;19.90;97.40;;;20.11;50.65;101480.31;5054190;27;97163;-44
2021/10/01 06:04:52;;;;;;;1.27;0.60;;;19.90;98.50;;;20.17;51.53;101475.41;5043359;27;99517;-46
2021/10/01 06:07:19;;;;;;;1.87;0.93;;;20.00;99.40;;;20.09;50.98;101482.19;5053941;27;98307;-46
2021/10/01 06:09:45;;;;;;;1.40;0.90;;;20.00;97.00;;;20.09;47.78;101483.06;5041186;27;97465;-45
2021/10/01 06:12:13;;;;;;;1.47;0.80;;;19.90;95.10;;;20.13;51.46;101481.94;5033918;27;97047;-43
2021/10/01 06:14:40;;;;;;;2.37;0.80;;;19.90;99.80;;;20.15;50.58;101481.84;5067343;27;99420;-45
2021/10/01 06:17:07;;;;;;;1.10;0.70;;;20.00;96.30;;;20.14;51.14;101485.47;5063063;27;100923;-46
2021/10/01 06:19:34;;;;;;;0.90;0.80;;;19.90;99.10;;;20.20;51.05;101479.72;5069123;27;97139;-47
2021/10/01 06:22:02;;;;;;;1.83;0.90;;;20.10;98.50;;;20.16;50.63;101480.88;5030974;27;97412;-48
2021/10/01 06:24:28;;;;;;;1.23;0.80;;;20.10;98.20;;;20.15;51.01;101481.84;5069153;27;98724;-44
2021/10/01 06:26:54;;;;;;;1.30;0.70;;;20.00;98.70;;;20.21;50.95;101481.44;5041695;27;100050;-44
2021/10/01 06:29:20;;;;;;;1.53;0.70;;;20.10;99.20;;;20.22;50.98;101475.13;5049359;27;97482;-45
2021/10/01 06:31:46;;;;;;;1.10;0.80;;;20.20;99.20;;;20.25;50.49;101472.22;5043296;27;98088;-49
2021/10/01 06:34:12;;;;;;;0.80;0.60;;;20.20;97.90;;;20.30;50.69;101471.97;5037483;27;100139;-44
2021/10/01 06:36:39;;;;;;;1.13;0.67;;;20.30;99.00;;;20.27;48.94;101465.00;5063263;27;98808;-43
2021/10/01 06:39:07;;;;;;;1.20;0.70;;;20.20;96.50;;;20.27;50.56;101465.00;5040429;27;97397;-48
2021/10/01 06:41:34;;;;;;;1.97;0.90;;;20.20;99.00;;;20.27;50.69;101459.63;5038947;27;98934;-49
2021/10/01 06:44:03;;;;;;;1.30;0.73;;;20.20;98.80;;;20.30;50.53;101470.16;5032057;27;99204;-48
2021/10/01 06:46:42;;;;;;;2.80;1.10;;;20.20;97.80;;;20.09;41.72;101461.63;5048999;27;99608;-44
2021/10/01 06:49:20;;;;;;;2.47;0.90;;;20.10;92.50;;;19.74;48.76;101466.50;5045853;27;101516;-46
2021/10/01 08:19:46;;;;;;;4.07;0.90;;;19.40;99.20;;;19.68;50.83;101449.97;5069932;27;97036;-44
2021/10/01 08:22:13;;;;;;;3.33;1.20;;;19.50;98.10;;;19.68;47.23;101445.47;5050687;27;99146;-48
2021/10/01 08:24:39;;;;;;;1.97;0.87;;;19.50;94.60;;;19.73;48.59;101442.50;5055192;27;96897;-46
2021/10/01 08:27:06;;;;;;;0.67;0.60;;;19.50;95.60;;;19.83;51.47;101443.69;5047290;27;97933;-43
2021/10/01 08:29:33;;;;;;;0.93;0.70;;;19.60;99.30;;;19.93;51.14;101442.13;5057355;27;98304;-44
2021/10/01 08:32:01;;;;;;;4.10;1.30;;;19.80;99.40;;;19.81;46.33;101435.72;5066166;27;97518;-44
2021/10/01 08:34:30;;;;;;;2.00;1.03;;;19.70;93.20;;;19.86;49.83;101436.31;5067189;27;97314;-43
2021/10/01 08:36:57;;;;;;;1.43;0.80;;;19.60;97.50;;;19.80;49.86;101439.34;5049304;27;98570;-44
2021/10/01 08:39:22;;;;;;;2.40;0.93;;;19.50;96.10;;;19.82;50.84;101432.09;5069373;27;97629;-44
2021/10/01 08:41:49;;;;;;;1.13;0.77;;;19.60;97.80;;;19.90;50.70;101423.59;5068264;27;97448;-43
2021/10/01 08:44:16;;;;;;;3.13;1.20;;;19.70;97.70;;;19.78;42.56;101425.19;5051416;27;99486;-45
2021/10/01 08:46:48;;;;;;;3.10;0.93;;;19.70;93.20;;;19.88;50.56;101426.34;5052106;27;97276;-46
2021/10/01 08:49:14;;;;;;;2.50;1.33;;;19.70;97.40;;;19.98;49.13;101425.78;5051883;27;97244;-44
2021/10/01 08:51:42;;;;;;;7.10;1.33;;;19.80;95.50;;;19.78;42.77;101419.84;5054691;27;96891;-50
2021/10/01 08:54:08;;;;;;;2.83;0.97;;;19.70;93.40;;;19.71;43.24;101421.19;5070887;27;101104;-46
2021/10/01 08:56:34;;;;;;;1.60;0.93;;;19.50;93.50;;;19.77;50.98;101407.41;5071001;27;96803;-43
2021/10/01 08:59:00;;;;;;;4.17;1.00;;;19.50;98.60;;;19.88;50.56;101415.66;5044099;27;98918;-44
2021/10/01 09:01:26;;;;;;;1.30;0.77;;;19.70;97.30;;;20.00;51.09;101403.31;5072990;27;102085;-43
2021/10/01 09:03:52;;;;;;;2.10;0.70;;;19.80;99.10;;;20.06;47.84;101402.06;5053780;27;99745;-46
2021/10/01 09:06:19;;;;;;;2.03;0.70;;;20.00;96.80;;;20.17;50.72;101399.56;5072544;27;96750;-45
2021/10/01 09:09:05;;;;;;;1.63;0.90;;;20.10;98.10;;;20.19;49.06;101393.13;5048676;27;97740;-44
2021/10/01 09:11:35;;;;;;;3.10;0.90;;;20.10;96.30;;;20.26;50.20;101390.09;5050126;27;97749;-44
2021/10/01 09:14:09;;;;;;;1.57;0.80;;;20.20;97.80;;;20.19;42.94;101378.88;5069373;27;96728;-44
2021/10/01 09:16:38;;;;;;;6.30;1.10;;;20.10;94.00;;;20.07;49.17;101377.00;5043916;27;98838;-47
2021/10/01 09:19:07;;;;;;;1.57;0.90;;;19.90;94.60;;;20.06;49.36;101370.78;5064546;27;97695;-43
2021/10/01 09:21:46;;;;;;;1.80;0.77;;;19.80;96.30;;;20.03;47.88;101383.50;5069573;27;97460;-43
2021/10/01 09:24:16;;;;;;;2.00;1.10;;;19.80;97.50;;;19.89;45.33;101374.53;5064212;27;100971;-43
2021/10/01 09:26:48;;;;;;;0.90;0.80;;;19.70;92.40;;;20.01;50.90;101367.53;5046844;27;96925;-50
2021/10/01 09:29:27;;;;;;;1.60;0.73;;;19.90;99.20;;;20.08;50.82;101362.63;5068461;27;97558;-47
2021/10/01 09:31:55;;;;;;;3.80;1.30;;;19.90;98.70;;;20.03;43.10;101362.94;5049799;27;99822;-48
2021/10/01 09:34:24;;;;;;;1.57;0.83;;;19.90;93.70;;;19.97;50.12;101365.16;5067213;27;97317;-47
2021/10/01 09:37:13;;;;;;;3.27;0.90;;;19.80;97.00;;;20.05;48.49;101352.13;5051724;27;97480;-47
2021/10/01 09:39:50;;;;;;;3.67;0.90;;;19.90;93.30;;;19.83;47.58;101347.31;5050560;27;99000;-48
2021/10/01 09:42:26;;;;;;;4.23;0.70;;;19.60;94.20;;;19.97;50.63;101354.47;5047335;27;104151;-43
2021/10/01 09:44:59;;;;;;;3.07;0.87;;;19.80;97.90;;;19.99;49.52;101358.75;5044753;27;97862;-46
2021/10/01 09:47:30;;;;;;;1.63;0.70;;;19.80;96.40;;;20.00;48.28;101341.72;5055892;27;97297;-46
2021/10/01 09:50:11;;;;;;;1.90;1.07;;;19.90;95.50;;;20.09;46.82;101340.25;5030196;27;98483;-46
2021/10/01 09:52:52;;;;;;;2.20;0.90;;;19.90;98.50;;;20.06;44.71;101337.78;5050917;27;98545;-46
2021/10/01 09:55:27;;;;;;;1.60;0.70;;;20.00;95.00;;;20.16;48.95;101341.59;5043381;27;102434;-45
2021/10/01 09:58:12;;;;;;;2.33;0.80;;;20.10;97.20;;;20.18;45.16;101337.00;5029147;27;98651;-47
2021/10/01 10:00:52;;;;;;;2.10;0.80;;;20.10;94.80;;;20.26;49.87;101334.69;5033539;27;98073;-44
2021/10/01 10:03:24;;;;;;;1.67;0.80;;;20.20;97.00;;;20.34;49.83;101332.34;5029800;27;104439;-49
2021/10/01 10:06:00;;;;;;;2.90;0.90;;;20.30;98.00;;;20.31;43.39;101348.63;5021717;27;99949;-45
2021/10/01 10:08:45;;;;;;;2.97;0.90;;;20.30;94.20;;;20.23;47.16;101325.97;5030629;27;99085;-45
2021/10/01 10:11:16;;;;;;;3.63;0.70;;;20.10;97.10;;;20.31;49.43;101343.28;5043934;27;98043;-48
2021/10/01 10:13:54;;;;;;;5.17;0.70;;;20.20;96.50;;;20.37;49.52;101328.59;5026319;27;97340;-45
2021/10/01 10:16:25;;;;;;;1.37;0.70;;;20.30;97.20;;;20.44;49.29;101333.50;5030225;27;98351;-43
2021/10/01 10:19:08;;;;;;;2.80;0.90;;;20.40;96.70;;;20.41;41.28;101328.34;5008288;27;99885;-46
2021/10/01 10:21:36;;;;;;;1.90;0.83;;;20.40;91.50;;;20.32;39.97;101328.91;5033035;27;97489;-48
2021/10/01 10:24:03;;;;;;;2.03;1.10;;;20.30;90.40;;;20.04;41.16;101324.50;5039244;27;99944;-50
2021/10/01 10:26:29;;;;;;;3.97;0.77;;;20.10;91.00;;;20.05;49.43;101322.69;5026733;27;100820;-45
2021/10/01 10:29:02;;;;;;;0.97;0.80;;;20.00;97.10;;;20.16;44.89;101325.53;5023545;27;98747;-45
2021/10/01 10:31:33;;;;;;;2.83;0.63;;;20.10;95.50;;;20.26;49.16;101313.25;5047506;27;97408;-44
2021/10/01 10:33:59;;;;;;;2.20;0.60;;;20.30;97.50;;;20.42;45.18;101324.72;5004212;27;98549;-45
2021/10/01 10:36:44;;;;;;;1.53;0.80;;;20.40;94.70;;;20.54;48.47;101316.78;5013548;27;99083;-47
2021/10/01 10:39:14;;;;;;;1.00;0.63;;;20.60;96.10;;;20.59;48.06;101314.69;5021259;27;98593;-46
2021/10/01 10:42:06;;;;;;;4.43;1.03;;;20.60;96.10;;;20.68;47.83;101320.25;5028058;27;99478;-49
2021/10/01 10:44:50;;;;;;;2.13;0.97;;;20.70;94.90;;;20.68;48.38;101309.53;5041311;27;103618;-45
2021/10/01 10:47:47;;;;;;;4.67;1.23;;;20.80;96.30;;;20.74;48.23;101313.66;5025208;27;103349;-45
2021/10/01 10:50:23;;;;;;;2.13;0.80;;;20.80;96.20;;;20.77;48.11;101305.38;5025536;27;99281;-43
2021/10/01 10:53:11;;;;;;;1.87;0.70;;;20.90;96.20;;;20.77;46.95;101303.56;5042333;27;99159;-46
2021/10/01 10:56:07;;;;;;;2.23;0.60;;;20.90;94.70;;;20.78;47.73;101296.38;5046664;27;97022;-47
2021/10/01 10:58:42;;;;;;;2.60;0.90;;;20.90;95.30;;;20.77;48.20;101298.19;5023442;27;103374;-44
2021/10/01 11:01:15;;;;;;;4.60;1.07;;;20.90;96.20;;;20.77;45.68;101298.19;5045828;27;98467;-43
2021/10/01 11:03:41;;;;;;;2.37;0.83;;;21.00;94.10;;;20.76;42.67;101267.00;5046269;27;101056;-47
2021/10/01 11:06:17;;;;;;;4.00;1.17;;;20.90;92.80;;;20.84;42.37;101282.56;5027872;27;103411;-41
2021/10/01 11:08:46;;;;;;;1.87;0.80;;;20.90;92.60;;;20.80;47.61;101276.53;5022173;27;99589;-43
2021/10/01 11:11:33;;;;;;;2.10;0.93;;;20.90;96.10;;;20.76;45.14;101274.19;5013330;27;100271;-44
2021/10/01 11:14:19;;;;;;;1.40;0.70;;;20.90;94.80;;;20.82;46.35;101268.38;5027033;27;98814;-41
2021/10/01 11:16:54;;;;;;;3.40;0.80;;;20.90;95.30;;;20.85;47.99;101270.88;5018931;27;105675;-42
2021/10/01 11:19:49;;;;;;;2.00;0.70;;;20.90;96.30;;;20.84;47.89;101257.59;5026905;27;99671;-43
2021/10/01 11:22:38;;;;;;;3.27;0.73;;;20.90;96.40;;;20.74;46.98;101260.03;5020518;27;97632;-43
2021/10/01 11:25:12;;;;;;;5.27;1.40;;;20.90;96.00;;;20.80;43.81;101259.59;5018881;27;98053;-41
2021/10/01 11:27:56;;;;;;;1.20;0.63;;;20.90;93.10;;;20.78;44.08;101250.81;5026555;27;98526;-45
2021/10/01 11:30:24;;;;;;;1.13;0.70;;;20.90;94.20;;;20.70;48.50;101250.50;5018618;27;101282;-41
2021/10/01 11:32:50;;;;;;;2.07;0.60;;;20.90;96.50;;;20.71;48.49;101249.53;5020044;27;98932;-44
2021/10/01 11:35:17;;;;;;;1.70;0.77;;;20.90;96.40;;;20.74;47.90;101249.31;5021517;27;98630;-46
2021/10/01 11:37:49;;;;;;;4.27;1.00;;;20.90;95.70;;;20.77;47.27;101254.44;5024663;27;99913;-41
2021/10/01 11:40:24;;;;;;;0.67;0.50;;;20.90;95.10;;;20.66;48.29;101246.28;5043849;27;97523;-40
2021/10/01 11:42:59;;;;;;;1.20;0.60;;;20.80;96.40;;;20.75;45.31;101240.31;5030386;27;97011;-48
2021/10/01 11:45:32;;;;;;;1.13;0.60;;;20.90;95.20;;;20.71;48.33;101233.44;5066575;27;98983;-46
2021/10/01 11:48:10;;;;;;;1.70;0.77;;;20.90;96.60;;;20.62;48.43;101229.56;5051397;27;100869;-45
2021/10/01 11:50:40;;;;;;;1.97;0.50;;;20.80;96.50;;;20.72;48.20;101219.06;5050992;27;99336;-45
2021/10/01 11:53:19;;;;;;;1.73;0.90;;;20.80;96.30;;;20.80;47.65;101228.28;5059144;27;97310;-45
2021/10/01 11:56:03;;;;;;;1.50;0.80;;;20.90;95.40;;;20.84;45.89;101225.41;5058331;27;97440;-46
2021/10/01 11:58:31;;;;;;;1.33;0.63;;;20.90;96.00;;;20.71;48.48;101217.34;5066728;27;98533;-43